Towanda, Illinois
Current Conditions -  °F | °C
As of 9:56 AM on Saturday 20 Dec 2014 (Local Time) from KBMI Reporting Station
Broken Clouds Broken Clouds  
Wind Chill: 24°   Ceiling: 5500
Heat Index: 30°   Visibility: 7mi
Dew Point: 28°   Wind: 6mph
Humidity: 92%   Direction: 170°S
Pressure: 30.29"   Gusts: NA
Location:  40.56°N, 88.9°W
Report Text: KBMI 201556Z 17005KT 7SM BKN055 M01/M02 A3029 RMK AO2 T10111022 BKN V OVC SLP278
Loading
Personal Weather Stations






























Interactive Weather Map New forecast layout! Learn more

10-Day Weather Forecast

Advertisements
Track Severe Weather on mobile